createdAt,value
2019-05-22T00:00:30.026Z,65.81
2019-05-22T00:03:12.741Z,63.96
2019-05-22T00:06:05.898Z,65.11
2019-05-22T00:08:37.189Z,65.38
2019-05-22T00:11:09.391Z,66.12
2019-05-22T00:13:40.559Z,64.91
2019-05-22T00:16:11.451Z,64.89
2019-05-22T00:18:40.517Z,65.22
2019-05-22T00:21:10.676Z,66.82
2019-05-22T00:23:41.511Z,64.87
2019-05-22T00:26:12.025Z,66.56
2019-05-22T00:28:41.752Z,66.58
2019-05-22T00:31:13.923Z,66.06
2019-05-22T00:33:44.212Z,66.47
2019-05-22T00:36:13.652Z,66.66
2019-05-22T00:38:43.834Z,67.02
2019-05-22T00:41:12.969Z,66.81
2019-05-22T00:43:45.089Z,66.83
2019-05-22T00:46:16.380Z,65.44
2019-05-22T00:48:48.242Z,66.63
2019-05-22T00:51:37.040Z,66.66
2019-05-22T00:54:17.560Z,67.88
2019-05-22T00:56:57.619Z,67.72
2019-05-22T00:59:35.826Z,67.23
2019-05-22T01:02:12.590Z,67.29
2019-05-22T01:04:42.600Z,67.02
2019-05-22T01:07:20.933Z,67.28
2019-05-22T01:09:52.282Z,68.60
2019-05-22T01:12:27.269Z,69.24
2019-05-22T01:14:58.868Z,70.19
2019-05-22T01:17:30.160Z,70.15
2019-05-22T01:20:01.365Z,70.84
2019-05-22T01:22:31.176Z,70.41
2019-05-22T01:25:02.837Z,70.77
2019-05-22T01:27:32.719Z,71.28
2019-05-22T01:30:03.825Z,71.15
2019-05-22T01:32:46.730Z,71.15
2019-05-22T01:35:16.793Z,72.53
2019-05-22T01:37:46.138Z,72.30
2019-05-22T01:40:36.834Z,71.77
2019-05-22T01:43:09.689Z,71.74
2019-05-22T01:45:40.140Z,73.83
2019-05-22T01:48:15.490Z,72.99
2019-05-22T01:50:48.987Z,72.77
2019-05-22T01:53:21.870Z,73.38
2019-05-22T01:55:53.434Z,72.41
2019-05-22T01:58:23.903Z,71.54
2019-05-22T02:00:55.571Z,72.20
2019-05-22T02:03:25.423Z,72.30
2019-05-22T02:05:55.207Z,73.07
2019-05-22T02:08:27.299Z,72.20
2019-05-22T02:11:00.154Z,72.68
2019-05-22T02:13:33.185Z,72.14
2019-05-22T02:16:02.783Z,72.04
2019-05-22T02:18:34.333Z,72.94
2019-05-22T02:21:04.753Z,72.45
2019-05-22T02:23:35.856Z,72.57
2019-05-22T02:26:07.609Z,72.94
2019-05-22T02:28:38.808Z,74.11
2019-05-22T02:31:08.551Z,73.62
2019-05-22T02:33:39.764Z,73.06
2019-05-22T02:36:09.353Z,74.00
2019-05-22T02:38:39.948Z,74.88
2019-05-22T02:41:13.988Z,76.31
2019-05-22T02:43:40.243Z,75.30
2019-05-22T02:46:12.115Z,74.29
2019-05-22T02:48:42.426Z,74.62
2019-05-22T02:51:12.753Z,74.81
2019-05-22T02:53:41.648Z,74.51
2019-05-22T02:56:11.165Z,76.57
2019-05-22T02:58:40.550Z,76.22
2019-05-22T03:01:11.755Z,74.82
2019-05-22T03:03:46.072Z,74.79
2019-05-22T03:06:18.168Z,74.48
2019-05-22T03:09:03.491Z,77.03
2019-05-22T03:11:40.732Z,75.40
2019-05-22T03:14:13.750Z,74.34
2019-05-22T03:17:03.294Z,74.32
2019-05-22T03:19:36.755Z,74.11
2019-05-22T03:22:26.293Z,74.48
2019-05-22T03:24:58.216Z,74.91
2019-05-22T03:27:50.874Z,74.83
2019-05-22T03:30:24.758Z,74.77
2019-05-22T03:32:56.598Z,74.15
2019-05-22T03:35:28.303Z,74.77
2019-05-22T03:37:59.286Z,75.11
2019-05-22T03:40:29.968Z,74.74
2019-05-22T03:43:02.286Z,75.15
2019-05-22T03:45:32.900Z,74.67
2019-05-22T03:48:05.033Z,75.01
2019-05-22T03:50:33.856Z,75.01
2019-05-22T03:53:08.427Z,75.70
2019-05-22T03:55:38.259Z,75.95
2019-05-22T03:58:08.690Z,75.96
2019-05-22T04:00:43.337Z,75.60
2019-05-22T04:03:12.952Z,75.39
2019-05-22T04:05:42.254Z,75.74
2019-05-22T04:08:13.705Z,75.88
2019-05-22T04:11:03.240Z,76.06
2019-05-22T04:13:33.610Z,76.15
2019-05-22T04:16:04.763Z,75.76
2019-05-22T04:18:33.641Z,76.67
2019-05-22T04:21:03.627Z,76.69
2019-05-22T04:23:32.660Z,76.92
2019-05-22T04:26:01.980Z,76.13
2019-05-22T04:28:31.586Z,76.47
2019-05-22T04:31:00.873Z,76.34
2019-05-22T04:33:30.962Z,76.19
2019-05-22T04:36:02.075Z,75.65
2019-05-22T04:38:31.643Z,75.82
2019-05-22T04:41:02.429Z,76.10
2019-05-22T04:43:34.316Z,78.01
2019-05-22T04:46:05.494Z,76.96
2019-05-22T04:48:35.397Z,76.54
2019-05-22T04:51:22.831Z,76.87
2019-05-22T04:53:52.632Z,76.46
2019-05-22T04:56:22.923Z,76.52
2019-05-22T04:58:52.761Z,76.44
2019-05-22T05:01:22.450Z,76.58
2019-05-22T05:03:52.286Z,76.21
2019-05-22T05:06:24.021Z,76.17
2019-05-22T05:08:53.242Z,75.91
2019-05-22T05:11:22.236Z,76.24
2019-05-22T05:13:51.342Z,76.75
2019-05-22T05:16:20.223Z,76.68
2019-05-22T05:18:49.321Z,75.94
2019-05-22T05:21:18.312Z,76.84
2019-05-22T05:23:47.620Z,76.61
2019-05-22T05:26:16.900Z,76.56
2019-05-22T05:28:46.522Z,75.97
2019-05-22T05:31:15.518Z,76.03
2019-05-22T05:33:50.655Z,77.03
2019-05-22T05:36:20.566Z,76.04
2019-05-22T05:38:49.459Z,75.10
2019-05-22T05:41:18.452Z,74.39
2019-05-22T05:43:47.526Z,73.56
2019-05-22T05:46:16.611Z,73.80
2019-05-22T05:48:47.636Z,72.59
2019-05-22T05:51:19.442Z,72.19
2019-05-22T05:54:00.052Z,72.50
2019-05-22T05:56:32.077Z,72.26
2019-05-22T05:59:03.269Z,73.18
2019-05-22T06:01:34.062Z,72.03
2019-05-22T06:04:04.175Z,71.14
2019-05-22T06:06:36.376Z,70.66
2019-05-22T06:09:08.794Z,72.41
2019-05-22T06:11:50.738Z,71.34
2019-05-22T06:14:28.893Z,71.74
2019-05-22T06:17:23.188Z,71.57
2019-05-22T06:19:55.892Z,71.31
2019-05-22T06:22:25.294Z,71.37
2019-05-22T06:25:04.663Z,71.11
2019-05-22T06:27:35.528Z,71.63
2019-05-22T06:30:10.340Z,71.31
2019-05-22T06:33:09.586Z,70.84
2019-05-22T06:35:40.033Z,70.98
2019-05-22T06:38:37.591Z,72.53
2019-05-22T06:41:07.484Z,71.31
2019-05-22T06:43:40.597Z,70.88
2019-05-22T06:46:11.773Z,70.81
2019-05-22T06:48:42.579Z,70.94
2019-05-22T06:51:19.475Z,71.13
2019-05-22T06:53:43.665Z,71.13
2019-05-22T06:56:15.121Z,71.04
2019-05-22T06:58:43.988Z,70.24
2019-05-22T07:01:13.042Z,70.17
2019-05-22T07:03:42.127Z,69.55
2019-05-22T07:06:13.646Z,71.10
2019-05-22T07:08:43.232Z,71.64
2019-05-22T07:11:12.634Z,73.02
2019-05-22T07:13:41.733Z,70.25
2019-05-22T07:16:11.436Z,71.22
2019-05-22T07:18:41.889Z,68.97
2019-05-22T07:21:12.308Z,69.97
2019-05-22T07:23:43.340Z,69.47
2019-05-22T07:26:12.883Z,68.55
2019-05-22T07:28:42.119Z,68.51
2019-05-22T07:31:11.867Z,66.38
2019-05-22T07:33:40.952Z,66.64
2019-05-22T07:36:15.266Z,68.04
2019-05-22T07:38:41.394Z,67.71
2019-05-22T07:41:11.108Z,67.86
2019-05-22T07:43:41.581Z,66.39
2019-05-22T07:46:12.074Z,66.31
2019-05-22T07:48:41.670Z,66.61
2019-05-22T07:51:12.824Z,66.75
2019-05-22T07:53:42.219Z,66.73
2019-05-22T07:56:13.094Z,67.26
2019-05-22T07:58:43.280Z,66.76
2019-05-22T08:01:12.376Z,65.31
2019-05-22T08:03:43.796Z,65.99
2019-05-22T08:06:12.829Z,64.54
2019-05-22T08:08:44.653Z,61.95
2019-05-22T08:11:14.644Z,62.27
2019-05-22T08:13:45.539Z,62.19
2019-05-22T08:16:16.676Z,62.56
2019-05-22T08:18:46.591Z,62.21
2019-05-22T08:21:16.180Z,62.46
2019-05-22T08:23:45.297Z,61.88
2019-05-22T08:26:15.853Z,62.21
2019-05-22T08:28:45.029Z,62.00
2019-05-22T08:31:15.909Z,61.03
2019-05-22T08:33:45.469Z,62.23
2019-05-22T08:36:14.974Z,61.95
2019-05-22T08:38:45.679Z,62.12
2019-05-22T08:41:16.418Z,62.24
2019-05-22T08:44:14.465Z,60.56
2019-05-22T08:46:18.356Z,59.30
2019-05-22T08:48:48.883Z,59.30
2019-05-22T08:51:18.328Z,60.53
2019-05-22T08:53:48.744Z,59.73
2019-05-22T08:56:18.425Z,58.77
2019-05-22T08:58:48.831Z,59.31
2019-05-22T09:01:17.717Z,58.40
2019-05-22T09:03:47.116Z,59.00
2019-05-22T09:06:16.007Z,59.33
2019-05-22T09:08:44.940Z,56.19
2019-05-22T09:11:13.789Z,55.79
2019-05-22T09:13:42.681Z,56.24
2019-05-22T09:16:13.609Z,54.92
2019-05-22T09:18:42.614Z,53.17
2019-05-22T09:21:13.485Z,53.64
2019-05-22T09:23:43.066Z,52.78
2019-05-22T09:26:12.883Z,52.35
2019-05-22T09:28:41.878Z,50.56
2019-05-22T09:31:11.781Z,52.09
2019-05-22T09:33:40.673Z,52.69
2019-05-22T09:36:11.442Z,51.80
2019-05-22T09:38:40.401Z,50.02
2019-05-22T09:41:10.396Z,49.77
2019-05-22T09:43:39.320Z,49.65
2019-05-22T09:46:09.529Z,51.56
2019-05-22T09:48:39.653Z,51.01
2019-05-22T09:51:09.258Z,52.01
2019-05-22T09:53:38.870Z,50.18
2019-05-22T09:56:08.701Z,49.61
2019-05-22T09:58:38.096Z,51.38
2019-05-22T10:01:11.709Z,48.37
2019-05-22T10:03:40.269Z,47.91
2019-05-22T10:06:09.662Z,50.28
2019-05-22T10:08:38.668Z,48.78
2019-05-22T10:11:08.169Z,47.39
2019-05-22T10:13:37.245Z,47.42
2019-05-22T10:16:07.051Z,46.68
2019-05-22T10:18:36.598Z,46.70
2019-05-22T10:21:05.938Z,43.81
2019-05-22T10:23:35.866Z,45.16
2019-05-22T10:26:05.538Z,46.40
2019-05-22T10:28:35.571Z,44.05
2019-05-22T10:31:06.298Z,45.30
2019-05-22T10:33:36.902Z,44.03
2019-05-22T10:36:08.020Z,44.02
2019-05-22T10:38:37.035Z,44.69
2019-05-22T10:41:06.666Z,46.63
2019-05-22T10:43:35.943Z,45.95
2019-05-22T10:46:06.100Z,44.55
2019-05-22T10:48:39.767Z,45.05
2019-05-22T10:51:06.748Z,46.52
2019-05-22T10:53:37.385Z,42.04
2019-05-22T10:56:06.568Z,43.21
2019-05-22T10:58:35.743Z,40.93
2019-05-22T11:01:05.136Z,40.57
2019-05-22T11:03:35.171Z,39.33
2019-05-22T11:06:07.601Z,38.31
2019-05-22T11:08:35.815Z,38.98
2019-05-22T11:11:05.322Z,40.35
2019-05-22T11:13:35.034Z,41.14
2019-05-22T11:16:04.455Z,40.96
2019-05-22T11:18:35.508Z,40.42
2019-05-22T11:21:04.998Z,39.75
2019-05-22T11:23:50.443Z,39.37
2019-05-22T11:26:05.633Z,39.09
2019-05-22T11:28:34.883Z,36.18
2019-05-22T11:31:04.542Z,37.62
2019-05-22T11:33:34.432Z,37.63
2019-05-22T11:36:04.807Z,36.63
2019-05-22T11:38:33.774Z,35.70
2019-05-22T11:41:03.058Z,38.60
2019-05-22T11:43:31.964Z,35.19
2019-05-22T11:46:01.076Z,37.67
2019-05-22T11:48:30.150Z,34.78
2019-05-22T11:51:00.982Z,36.38
2019-05-22T11:53:30.971Z,33.69
2019-05-22T11:56:01.171Z,33.70
2019-05-22T11:58:31.643Z,35.19
2019-05-22T12:01:02.041Z,33.89
2019-05-22T12:03:33.446Z,35.21
2019-05-22T12:06:04.293Z,34.23
2019-05-22T12:08:33.274Z,32.14
2019-05-22T12:11:03.259Z,36.80
2019-05-22T12:13:32.998Z,35.64
2019-05-22T12:16:03.998Z,35.00
2019-05-22T12:18:35.085Z,37.02
2019-05-22T12:21:05.864Z,34.52
2019-05-22T12:23:35.413Z,37.49
2019-05-22T12:26:04.859Z,35.08
2019-05-22T12:28:39.966Z,38.83
2019-05-22T12:31:13.588Z,37.83
2019-05-22T12:33:44.913Z,37.83
2019-05-22T12:36:14.893Z,38.29
2019-05-22T12:38:48.202Z,35.52
2019-05-22T12:41:20.537Z,36.94
2019-05-22T12:43:50.528Z,38.13
2019-05-22T12:46:20.771Z,40.01
2019-05-22T12:48:52.986Z,38.41
2019-05-22T12:51:42.393Z,39.86
2019-05-22T12:54:12.021Z,37.72
2019-05-22T12:56:44.232Z,40.23
2019-05-22T12:59:14.236Z,38.02
2019-05-22T13:01:45.971Z,40.62
2019-05-22T13:04:15.743Z,38.17
2019-05-22T13:06:45.838Z,38.46
2019-05-22T13:09:15.164Z,36.65
2019-05-22T13:11:46.498Z,37.37
2019-05-22T13:14:15.505Z,37.27
2019-05-22T13:16:48.860Z,40.41
2019-05-22T13:19:16.434Z,37.45
2019-05-22T13:21:48.075Z,38.29
2019-05-22T13:24:19.088Z,36.34
2019-05-22T13:26:51.315Z,39.72
2019-05-22T13:29:21.635Z,38.93
2019-05-22T13:31:52.762Z,37.30
2019-05-22T13:34:24.061Z,36.44
2019-05-22T13:36:56.548Z,37.84
2019-05-22T13:39:24.732Z,40.09
2019-05-22T13:41:53.686Z,36.93
2019-05-22T13:44:24.830Z,34.25
2019-05-22T13:46:54.234Z,34.53
2019-05-22T13:49:23.432Z,35.57
2019-05-22T13:51:53.142Z,36.83
2019-05-22T13:54:22.441Z,34.95
2019-05-22T13:56:51.414Z,37.16
2019-05-22T13:59:21.055Z,38.28
2019-05-22T14:01:50.732Z,35.61
2019-05-22T14:04:19.748Z,37.68
2019-05-22T14:06:49.049Z,37.81
2019-05-22T14:09:21.441Z,34.88
2019-05-22T14:11:51.235Z,37.48
2019-05-22T14:14:20.228Z,38.10
2019-05-22T14:16:49.534Z,37.66
2019-05-22T14:19:19.245Z,38.22
2019-05-22T14:21:51.509Z,39.17
2019-05-22T14:24:18.921Z,37.23
2019-05-22T14:26:48.155Z,38.68
2019-05-22T14:29:17.142Z,35.90
2019-05-22T14:31:46.061Z,36.03
2019-05-22T14:34:15.077Z,36.13
2019-05-22T14:36:44.466Z,37.07
2019-05-22T14:39:14.570Z,36.74
2019-05-22T14:41:43.871Z,38.46
2019-05-22T14:44:12.863Z,35.83
2019-05-22T14:46:41.859Z,36.65
2019-05-22T14:49:12.006Z,37.35
2019-05-22T14:51:41.181Z,35.29
2019-05-22T14:54:10.680Z,35.08
2019-05-22T14:56:39.882Z,33.36
2019-05-22T14:59:09.204Z,32.21
2019-05-22T15:01:38.378Z,32.71
2019-05-22T15:04:08.154Z,32.74
2019-05-22T15:06:37.753Z,33.53
2019-05-22T15:09:07.637Z,33.88
2019-05-22T15:11:37.014Z,34.58
2019-05-22T15:14:06.009Z,34.00
2019-05-22T15:16:34.997Z,34.00
2019-05-22T15:19:04.187Z,35.00
2019-05-22T15:21:33.910Z,33.48
2019-05-22T15:24:03.609Z,33.62
2019-05-22T15:26:32.410Z,32.33
2019-05-22T15:29:01.458Z,32.86
2019-05-22T15:31:31.218Z,32.46
2019-05-22T15:34:02.517Z,35.28
2019-05-22T15:36:31.869Z,33.19
2019-05-22T15:39:02.303Z,34.08
2019-05-22T15:41:31.598Z,33.18
2019-05-22T15:44:00.604Z,31.91
2019-05-22T15:46:32.926Z,34.71
2019-05-22T15:49:04.626Z,32.22
2019-05-22T15:51:34.520Z,33.26
2019-05-22T15:54:05.663Z,33.03
2019-05-22T15:56:36.290Z,34.52
2019-05-22T15:59:07.501Z,34.35
2019-05-22T16:01:37.571Z,33.69
2019-05-22T16:04:09.203Z,34.60
2019-05-22T16:06:40.143Z,32.88
2019-05-22T16:09:13.322Z,34.82
2019-05-22T16:11:44.205Z,32.20
2019-05-22T16:14:15.000Z,34.23
2019-05-22T16:16:45.779Z,33.82
2019-05-22T16:19:15.276Z,33.75
2019-05-22T16:21:50.892Z,35.42
2019-05-22T16:24:20.060Z,34.99
2019-05-22T16:26:49.528Z,34.51
2019-05-22T16:29:18.956Z,34.14
2019-05-22T16:31:48.766Z,34.57
2019-05-22T16:34:18.864Z,34.09
2019-05-22T16:36:48.210Z,34.62
2019-05-22T16:39:18.693Z,34.88
2019-05-22T16:41:48.185Z,32.55
2019-05-22T16:44:17.609Z,33.41
2019-05-22T16:46:47.098Z,34.86
2019-05-22T16:49:16.408Z,34.47
2019-05-22T16:51:46.308Z,34.54
2019-05-22T16:54:20.653Z,34.62
2019-05-22T16:56:48.849Z,33.98
2019-05-22T16:59:19.563Z,34.91
2019-05-22T17:01:59.372Z,35.73
2019-05-22T17:04:19.693Z,35.06
2019-05-22T17:06:48.890Z,35.09
2019-05-22T17:09:19.116Z,35.94
2019-05-22T17:11:48.467Z,34.38
2019-05-22T17:14:20.018Z,33.88
2019-05-22T17:16:51.638Z,34.15
2019-05-22T17:19:27.153Z,33.53
2019-05-22T17:21:52.782Z,34.60
2019-05-22T17:24:22.805Z,35.49
2019-05-22T17:26:53.397Z,34.39
2019-05-22T17:29:22.554Z,35.41
2019-05-22T17:31:53.198Z,36.33
2019-05-22T17:34:31.785Z,34.03
2019-05-22T17:37:02.617Z,34.59
2019-05-22T17:39:34.478Z,34.22
2019-05-22T17:42:04.505Z,34.97
2019-05-22T17:44:35.400Z,34.70
2019-05-22T17:47:06.744Z,34.80
2019-05-22T17:49:37.880Z,34.78
2019-05-22T17:52:12.057Z,35.47
2019-05-22T17:54:40.422Z,36.33
2019-05-22T17:57:10.706Z,36.25
2019-05-22T17:59:39.947Z,36.41
2019-05-22T18:02:11.033Z,36.17
2019-05-22T18:04:39.875Z,35.88
2019-05-22T18:07:10.096Z,36.47
2019-05-22T18:09:40.116Z,35.94
2019-05-22T18:12:09.519Z,35.94
2019-05-22T18:14:39.227Z,36.88
2019-05-22T18:17:09.078Z,36.43
2019-05-22T18:19:38.242Z,35.38
2019-05-22T18:22:09.895Z,36.15
2019-05-22T18:24:38.787Z,36.69
2019-05-22T18:27:07.987Z,35.64
2019-05-22T18:29:36.982Z,35.64
2019-05-22T18:32:07.007Z,33.93
2019-05-22T18:34:36.206Z,35.33
2019-05-22T18:37:05.701Z,35.75
2019-05-22T18:39:35.104Z,36.06
2019-05-22T18:42:04.396Z,34.44
2019-05-22T18:44:33.503Z,35.21
2019-05-22T18:47:02.918Z,35.69
2019-05-22T18:49:31.900Z,38.20
2019-05-22T18:52:00.913Z,39.44
2019-05-22T18:54:29.942Z,40.64
2019-05-22T18:57:00.802Z,40.62
2019-05-22T18:59:29.618Z,40.55
2019-05-22T19:02:00.161Z,40.56
2019-05-22T19:04:30.487Z,39.81
2019-05-22T19:06:59.568Z,41.91
2019-05-22T19:09:28.456Z,40.95
2019-05-22T19:11:58.685Z,41.69
2019-05-22T19:14:27.674Z,42.76
2019-05-22T19:16:58.182Z,43.25
2019-05-22T19:19:28.472Z,43.41
2019-05-22T19:21:57.548Z,42.84
2019-05-22T19:24:26.520Z,43.63
2019-05-22T19:26:55.438Z,43.23
2019-05-22T19:29:24.399Z,42.62
2019-05-22T19:31:53.598Z,43.67
2019-05-22T19:34:22.693Z,43.05
2019-05-22T19:36:53.017Z,43.84
2019-05-22T19:39:24.059Z,43.51
2019-05-22T19:42:03.543Z,43.18
2019-05-22T19:44:25.225Z,43.24
2019-05-22T19:46:54.493Z,43.34
2019-05-22T19:49:23.980Z,43.67
2019-05-22T19:51:55.310Z,43.76
2019-05-22T19:54:24.294Z,43.93
2019-05-22T19:56:53.583Z,43.35
2019-05-22T19:59:23.075Z,43.63
2019-05-22T20:01:51.965Z,43.59
2019-05-22T20:04:21.032Z,43.57
2019-05-22T20:06:50.353Z,43.94
2019-05-22T20:09:21.096Z,43.66
2019-05-22T20:11:50.110Z,44.60
2019-05-22T20:14:19.592Z,44.42
2019-05-22T20:16:48.697Z,43.67
2019-05-22T20:19:17.993Z,43.56
2019-05-22T20:21:48.221Z,43.63
2019-05-22T20:24:17.618Z,43.38
2019-05-22T20:26:46.614Z,43.52
2019-05-22T20:29:16.372Z,43.09
2019-05-22T20:31:45.725Z,43.90
2019-05-22T20:34:15.346Z,43.95
2019-05-22T20:36:44.141Z,44.05
2019-05-22T20:39:14.859Z,43.55
2019-05-22T20:41:43.748Z,43.55
2019-05-22T20:44:12.851Z,43.47
2019-05-22T20:46:43.508Z,43.28
2019-05-22T20:49:12.372Z,43.11
2019-05-22T20:51:42.801Z,43.17
2019-05-22T20:54:13.091Z,43.37
2019-05-22T20:56:44.598Z,43.67
2019-05-22T20:59:14.380Z,43.55
2019-05-22T21:01:43.277Z,43.18
2019-05-22T21:04:13.876Z,42.88
2019-05-22T21:06:49.158Z,43.09
2019-05-22T21:09:19.345Z,43.45
2019-05-22T21:11:48.874Z,43.53
2019-05-22T21:14:17.971Z,43.26
2019-05-22T21:16:46.862Z,42.95
2019-05-22T21:19:15.858Z,43.57
2019-05-22T21:21:45.053Z,43.55
2019-05-22T21:24:14.354Z,43.19
2019-05-22T21:26:44.047Z,43.28
2019-05-22T21:29:13.571Z,43.24
2019-05-22T21:31:43.043Z,43.20
2019-05-22T21:34:12.073Z,43.20
2019-05-22T21:36:41.373Z,43.15
2019-05-22T21:39:13.422Z,43.37
2019-05-22T21:41:42.327Z,43.41
2019-05-22T21:44:11.834Z,43.90
2019-05-22T21:46:41.531Z,43.55
2019-05-22T21:49:12.587Z,44.11
2019-05-22T21:51:41.481Z,43.97
2019-05-22T21:54:12.298Z,44.47
2019-05-22T21:56:43.151Z,44.43
2019-05-22T21:59:13.552Z,44.40
2019-05-22T22:01:44.312Z,44.50
2019-05-22T22:04:21.205Z,44.63
2019-05-22T22:06:52.887Z,44.62
2019-05-22T22:09:23.129Z,44.47
2019-05-22T22:11:54.092Z,44.98
2019-05-22T22:14:24.118Z,44.93
2019-05-22T22:16:53.022Z,45.00
2019-05-22T22:19:22.629Z,44.82
2019-05-22T22:21:51.924Z,45.11
2019-05-22T22:24:21.636Z,44.75
2019-05-22T22:26:51.132Z,45.41
2019-05-22T22:29:20.953Z,45.76
2019-05-22T22:31:51.493Z,47.70
2019-05-22T22:34:23.447Z,48.41
2019-05-22T22:36:52.543Z,49.06
2019-05-22T22:39:21.844Z,50.37
2019-05-22T22:41:51.163Z,52.12
2019-05-22T22:44:21.234Z,51.65
2019-05-22T22:46:57.630Z,51.88
2019-05-22T22:49:28.118Z,51.77
2019-05-22T22:51:57.770Z,54.58
2019-05-22T22:54:26.865Z,55.18
2019-05-22T22:56:56.447Z,53.84
2019-05-22T22:59:26.766Z,53.76
2019-05-22T23:01:56.842Z,52.95
2019-05-22T23:04:28.595Z,54.38
2019-05-22T23:07:00.630Z,54.08
2019-05-22T23:09:29.531Z,53.40
2019-05-22T23:11:59.919Z,54.18
2019-05-22T23:14:29.771Z,54.42
2019-05-22T23:16:58.867Z,56.36
2019-05-22T23:19:33.932Z,55.56
2019-05-22T23:22:03.106Z,56.52
2019-05-22T23:24:34.330Z,56.52
2019-05-22T23:27:03.731Z,56.26
2019-05-22T23:29:33.644Z,56.27
2019-05-22T23:32:04.206Z,56.01
2019-05-22T23:34:33.086Z,56.42
2019-05-22T23:37:02.914Z,56.17
2019-05-22T23:39:32.794Z,56.70
2019-05-22T23:42:04.936Z,56.20
2019-05-22T23:44:36.125Z,55.85
2019-05-22T23:47:05.614Z,56.50
2019-05-22T23:49:36.089Z,56.53
2019-05-22T23:52:06.536Z,55.70
2019-05-22T23:54:36.403Z,56.24
2019-05-22T23:57:05.387Z,56.02
2019-05-22T23:59:36.239Z,56.05
